sensor_id;sensor_type;location;lat;lon;timestamp;P1;durP1;ratioP1;P2;durP2;ratioP2
72105;SDS011;59975;47.646;18.318;2023-03-01T00:01:11;31.15;;;13.48;;
72105;SDS011;59975;47.646;18.318;2023-03-01T00:03:39;26.70;;;12.53;;
72105;SDS011;59975;47.646;18.318;2023-03-01T00:06:05;26.85;;;12.65;;
72105;SDS011;59975;47.646;18.318;2023-03-01T00:08:31;31.33;;;11.98;;
72105;SDS011;59975;47.646;18.318;2023-03-01T00:11:01;25.52;;;12.40;;
72105;SDS011;59975;47.646;18.318;2023-03-01T00:13:27;24.88;;;11.32;;
72105;SDS011;59975;47.646;18.318;2023-03-01T00:15:52;27.00;;;11.27;;
72105;SDS011;59975;47.646;18.318;2023-03-01T00:18:18;30.23;;;11.60;;
72105;SDS011;59975;47.646;18.318;2023-03-01T00:20:49;27.13;;;12.70;;
72105;SDS011;59975;47.646;18.318;2023-03-01T00:23:18;26.87;;;12.07;;
72105;SDS011;59975;47.646;18.318;2023-03-01T00:25:44;28.90;;;11.85;;
72105;SDS011;59975;47.646;18.318;2023-03-01T00:28:10;26.05;;;12.20;;
72105;SDS011;59975;47.646;18.318;2023-03-01T00:30:35;26.57;;;11.43;;
72105;SDS011;59975;47.646;18.318;2023-03-01T00:33:01;24.47;;;10.93;;
72105;SDS011;59975;47.646;18.318;2023-03-01T00:35:26;25.85;;;10.90;;
72105;SDS011;59975;47.646;18.318;2023-03-01T00:37:52;24.55;;;11.40;;
72105;SDS011;59975;47.646;18.318;2023-03-01T00:40:26;21.38;;;10.98;;
72105;SDS011;59975;47.646;18.318;2023-03-01T00:42:53;21.40;;;10.50;;
72105;SDS011;59975;47.646;18.318;2023-03-01T00:45:18;21.50;;;10.63;;
72105;SDS011;59975;47.646;18.318;2023-03-01T00:47:44;24.13;;;10.63;;
72105;SDS011;59975;47.646;18.318;2023-03-01T00:50:10;21.17;;;10.35;;
72105;SDS011;59975;47.646;18.318;2023-03-01T00:52:36;20.88;;;10.20;;
72105;SDS011;59975;47.646;18.318;2023-03-01T00:55:03;24.15;;;10.10;;
72105;SDS011;59975;47.646;18.318;2023-03-01T00:57:29;21.63;;;10.15;;
72105;SDS011;59975;47.646;18.318;2023-03-01T00:59:55;19.38;;;9.23;;
72105;SDS011;59975;47.646;18.318;2023-03-01T01:02:22;22.33;;;9.33;;
72105;SDS011;59975;47.646;18.318;2023-03-01T01:04:47;21.25;;;9.10;;
72105;SDS011;59975;47.646;18.318;2023-03-01T01:07:13;22.65;;;9.90;;
72105;SDS011;59975;47.646;18.318;2023-03-01T01:09:39;21.90;;;9.45;;
72105;SDS011;59975;47.646;18.318;2023-03-01T01:12:05;18.48;;;8.88;;
72105;SDS011;59975;47.646;18.318;2023-03-01T01:14:31;17.58;;;8.55;;
72105;SDS011;59975;47.646;18.318;2023-03-01T01:16:57;20.93;;;9.37;;
72105;SDS011;59975;47.646;18.318;2023-03-01T01:19:23;21.83;;;9.00;;
72105;SDS011;59975;47.646;18.318;2023-03-01T01:21:49;19.02;;;8.15;;
72105;SDS011;59975;47.646;18.318;2023-03-01T01:24:15;17.85;;;9.35;;
72105;SDS011;59975;47.646;18.318;2023-03-01T01:26:41;19.23;;;9.00;;
72105;SDS011;59975;47.646;18.318;2023-03-01T01:29:08;18.38;;;8.85;;
72105;SDS011;59975;47.646;18.318;2023-03-01T01:31:35;18.23;;;8.98;;
72105;SDS011;59975;47.646;18.318;2023-03-01T01:34:01;18.67;;;9.25;;
72105;SDS011;59975;47.646;18.318;2023-03-01T01:36:29;20.48;;;9.90;;
72105;SDS011;59975;47.646;18.318;2023-03-01T01:38:55;20.20;;;8.77;;
72105;SDS011;59975;47.646;18.318;2023-03-01T01:41:21;21.70;;;9.60;;
72105;SDS011;59975;47.646;18.318;2023-03-01T01:44:33;23.27;;;9.30;;
72105;SDS011;59975;47.646;18.318;2023-03-01T01:46:36;17.67;;;9.40;;
72105;SDS011;59975;47.646;18.318;2023-03-01T01:49:04;26.13;;;10.27;;
72105;SDS011;59975;47.646;18.318;2023-03-01T01:51:35;21.50;;;10.02;;
72105;SDS011;59975;47.646;18.318;2023-03-01T01:54:06;22.23;;;10.95;;
72105;SDS011;59975;47.646;18.318;2023-03-01T01:56:37;26.75;;;11.07;;
72105;SDS011;59975;47.646;18.318;2023-03-01T01:59:05;23.17;;;10.80;;
72105;SDS011;59975;47.646;18.318;2023-03-01T02:01:31;23.02;;;10.40;;
72105;SDS011;59975;47.646;18.318;2023-03-01T02:03:56;23.90;;;11.70;;
72105;SDS011;59975;47.646;18.318;2023-03-01T02:06:30;26.60;;;11.75;;
72105;SDS011;59975;47.646;18.318;2023-03-01T02:09:06;21.33;;;10.15;;
72105;SDS011;59975;47.646;18.318;2023-03-01T02:11:35;30.40;;;10.80;;
72105;SDS011;59975;47.646;18.318;2023-03-01T02:14:02;24.83;;;10.83;;
72105;SDS011;59975;47.646;18.318;2023-03-01T02:16:28;22.73;;;10.18;;
72105;SDS011;59975;47.646;18.318;2023-03-01T02:18:54;23.38;;;11.35;;
72105;SDS011;59975;47.646;18.318;2023-03-01T02:26:46;21.30;;;10.73;;
72105;SDS011;59975;47.646;18.318;2023-03-01T02:29:15;19.52;;;9.43;;
72105;SDS011;59975;47.646;18.318;2023-03-01T02:31:40;24.88;;;11.05;;
72105;SDS011;59975;47.646;18.318;2023-03-01T02:34:07;19.93;;;9.27;;
72105;SDS011;59975;47.646;18.318;2023-03-01T02:36:42;22.30;;;9.57;;
72105;SDS011;59975;47.646;18.318;2023-03-01T02:39:13;20.48;;;8.43;;
72105;SDS011;59975;47.646;18.318;2023-03-01T02:41:43;18.50;;;9.10;;
72105;SDS011;59975;47.646;18.318;2023-03-01T02:44:12;22.87;;;9.07;;
72105;SDS011;59975;47.646;18.318;2023-03-01T02:46:47;19.58;;;8.73;;
72105;SDS011;59975;47.646;18.318;2023-03-01T02:49:25;21.88;;;9.70;;
72105;SDS011;59975;47.646;18.318;2023-03-01T02:54:40;24.38;;;9.57;;
72105;SDS011;59975;47.646;18.318;2023-03-01T02:57:29;23.02;;;9.90;;
72105;SDS011;59975;47.646;18.318;2023-03-01T02:59:57;24.45;;;11.20;;
72105;SDS011;59975;47.646;18.318;2023-03-01T03:02:31;26.90;;;11.32;;
72105;SDS011;59975;47.646;18.318;2023-03-01T03:05:04;24.00;;;11.65;;
72105;SDS011;59975;47.646;18.318;2023-03-01T03:07:35;31.65;;;11.73;;
72105;SDS011;59975;47.646;18.318;2023-03-01T03:10:03;30.70;;;12.18;;
72105;SDS011;59975;47.646;18.318;2023-03-01T03:12:30;24.85;;;11.35;;
72105;SDS011;59975;47.646;18.318;2023-03-01T03:14:56;23.30;;;11.00;;
72105;SDS011;59975;47.646;18.318;2023-03-01T03:17:22;23.75;;;11.30;;
72105;SDS011;59975;47.646;18.318;2023-03-01T03:19:48;25.77;;;12.13;;
72105;SDS011;59975;47.646;18.318;2023-03-01T03:22:13;27.97;;;11.93;;
72105;SDS011;59975;47.646;18.318;2023-03-01T03:24:39;25.30;;;11.38;;
72105;SDS011;59975;47.646;18.318;2023-03-01T03:27:05;26.37;;;10.90;;
72105;SDS011;59975;47.646;18.318;2023-03-01T03:29:31;28.30;;;11.95;;
72105;SDS011;59975;47.646;18.318;2023-03-01T03:31:56;28.60;;;12.17;;
72105;SDS011;59975;47.646;18.318;2023-03-01T03:34:22;29.40;;;12.33;;
72105;SDS011;59975;47.646;18.318;2023-03-01T03:36:48;30.48;;;12.98;;
72105;SDS011;59975;47.646;18.318;2023-03-01T03:39:22;22.88;;;11.23;;
72105;SDS011;59975;47.646;18.318;2023-03-01T03:41:48;27.40;;;11.48;;
72105;SDS011;59975;47.646;18.318;2023-03-01T03:44:13;28.73;;;12.30;;
72105;SDS011;59975;47.646;18.318;2023-03-01T03:46:39;28.33;;;13.17;;
72105;SDS011;59975;47.646;18.318;2023-03-01T03:49:05;27.38;;;12.98;;
72105;SDS011;59975;47.646;18.318;2023-03-01T03:51:30;25.03;;;11.70;;
72105;SDS011;59975;47.646;18.318;2023-03-01T03:53:55;25.37;;;12.43;;
72105;SDS011;59975;47.646;18.318;2023-03-01T03:56:21;31.87;;;12.77;;
72105;SDS011;59975;47.646;18.318;2023-03-01T03:58:50;25.48;;;11.25;;
72105;SDS011;59975;47.646;18.318;2023-03-01T04:01:16;23.88;;;11.82;;
72105;SDS011;59975;47.646;18.318;2023-03-01T04:03:42;23.87;;;11.20;;
72105;SDS011;59975;47.646;18.318;2023-03-01T04:06:11;30.92;;;11.48;;
72105;SDS011;59975;47.646;18.318;2023-03-01T04:08:37;22.17;;;10.90;;
72105;SDS011;59975;47.646;18.318;2023-03-01T04:11:03;26.52;;;11.82;;
72105;SDS011;59975;47.646;18.318;2023-03-01T04:13:50;24.73;;;11.30;;
72105;SDS011;59975;47.646;18.318;2023-03-01T04:16:17;23.03;;;10.63;;
72105;SDS011;59975;47.646;18.318;2023-03-01T04:18:43;22.92;;;10.15;;
72105;SDS011;59975;47.646;18.318;2023-03-01T04:21:09;23.02;;;10.50;;
72105;SDS011;59975;47.646;18.318;2023-03-01T04:23:36;21.45;;;10.23;;
72105;SDS011;59975;47.646;18.318;2023-03-01T04:26:02;24.63;;;11.70;;
72105;SDS011;59975;47.646;18.318;2023-03-01T04:28:29;24.67;;;10.98;;
72105;SDS011;59975;47.646;18.318;2023-03-01T04:31:01;26.27;;;10.80;;
72105;SDS011;59975;47.646;18.318;2023-03-01T04:33:38;22.40;;;9.93;;
72105;SDS011;59975;47.646;18.318;2023-03-01T04:36:08;26.75;;;11.57;;
72105;SDS011;59975;47.646;18.318;2023-03-01T04:38:34;21.17;;;10.73;;
72105;SDS011;59975;47.646;18.318;2023-03-01T04:41:02;23.02;;;10.80;;
72105;SDS011;59975;47.646;18.318;2023-03-01T04:43:33;42.88;;;16.33;;
72105;SDS011;59975;47.646;18.318;2023-03-01T04:46:02;32.00;;;14.80;;
72105;SDS011;59975;47.646;18.318;2023-03-01T04:48:31;39.22;;;16.90;;
72105;SDS011;59975;47.646;18.318;2023-03-01T04:50:58;32.38;;;14.32;;
72105;SDS011;59975;47.646;18.318;2023-03-01T04:53:24;31.15;;;12.93;;
72105;SDS011;59975;47.646;18.318;2023-03-01T04:55:49;27.05;;;12.55;;
72105;SDS011;59975;47.646;18.318;2023-03-01T04:58:15;23.40;;;11.38;;
72105;SDS011;59975;47.646;18.318;2023-03-01T05:00:41;25.70;;;12.00;;
72105;SDS011;59975;47.646;18.318;2023-03-01T05:03:07;27.83;;;12.90;;
72105;SDS011;59975;47.646;18.318;2023-03-01T05:05:37;31.88;;;13.88;;
72105;SDS011;59975;47.646;18.318;2023-03-01T05:08:07;33.55;;;14.90;;
72105;SDS011;59975;47.646;18.318;2023-03-01T05:10:34;33.05;;;15.00;;
72105;SDS011;59975;47.646;18.318;2023-03-01T05:13:00;25.67;;;13.68;;
72105;SDS011;59975;47.646;18.318;2023-03-01T05:15:29;26.88;;;13.55;;
72105;SDS011;59975;47.646;18.318;2023-03-01T05:17:56;28.42;;;14.13;;
72105;SDS011;59975;47.646;18.318;2023-03-01T05:20:24;31.85;;;14.15;;
72105;SDS011;59975;47.646;18.318;2023-03-01T05:22:52;24.17;;;12.95;;
72105;SDS011;59975;47.646;18.318;2023-03-01T05:25:20;28.10;;;12.52;;
72105;SDS011;59975;47.646;18.318;2023-03-01T05:27:46;24.92;;;12.25;;
72105;SDS011;59975;47.646;18.318;2023-03-01T05:30:12;27.10;;;13.07;;
72105;SDS011;59975;47.646;18.318;2023-03-01T05:32:42;27.88;;;13.02;;
72105;SDS011;59975;47.646;18.318;2023-03-01T05:35:13;25.70;;;13.20;;
72105;SDS011;59975;47.646;18.318;2023-03-01T05:37:41;24.90;;;12.23;;
72105;SDS011;59975;47.646;18.318;2023-03-01T05:40:09;28.92;;;11.57;;
72105;SDS011;59975;47.646;18.318;2023-03-01T05:42:50;32.10;;;13.93;;
72105;SDS011;59975;47.646;18.318;2023-03-01T05:45:19;28.88;;;14.32;;
72105;SDS011;59975;47.646;18.318;2023-03-01T05:47:46;35.17;;;14.45;;
72105;SDS011;59975;47.646;18.318;2023-03-01T05:50:13;34.63;;;14.53;;
72105;SDS011;59975;47.646;18.318;2023-03-01T05:52:44;31.05;;;13.88;;
72105;SDS011;59975;47.646;18.318;2023-03-01T05:55:10;34.70;;;14.75;;
72105;SDS011;59975;47.646;18.318;2023-03-01T05:57:37;26.00;;;13.52;;
72105;SDS011;59975;47.646;18.318;2023-03-01T06:00:03;21.80;;;11.77;;
72105;SDS011;59975;47.646;18.318;2023-03-01T06:02:28;26.55;;;12.18;;
72105;SDS011;59975;47.646;18.318;2023-03-01T06:08:16;31.90;;;15.50;;
72105;SDS011;59975;47.646;18.318;2023-03-01T06:10:41;40.83;;;17.87;;
72105;SDS011;59975;47.646;18.318;2023-03-01T06:13:07;29.53;;;13.27;;
72105;SDS011;59975;47.646;18.318;2023-03-01T06:15:32;31.95;;;13.77;;
72105;SDS011;59975;47.646;18.318;2023-03-01T06:17:58;32.87;;;14.00;;
72105;SDS011;59975;47.646;18.318;2023-03-01T06:20:25;39.22;;;13.70;;
72105;SDS011;59975;47.646;18.318;2023-03-01T06:22:54;33.20;;;12.27;;
72105;SDS011;59975;47.646;18.318;2023-03-01T06:25:21;27.08;;;11.20;;
72105;SDS011;59975;47.646;18.318;2023-03-01T06:27:48;29.35;;;10.25;;
72105;SDS011;59975;47.646;18.318;2023-03-01T06:30:15;24.47;;;9.17;;
72105;SDS011;59975;47.646;18.318;2023-03-01T06:32:42;20.08;;;8.32;;
72105;SDS011;59975;47.646;18.318;2023-03-01T06:35:11;24.85;;;9.52;;
72105;SDS011;59975;47.646;18.318;2023-03-01T06:37:41;19.60;;;8.68;;
72105;SDS011;59975;47.646;18.318;2023-03-01T06:40:07;19.67;;;8.68;;
72105;SDS011;59975;47.646;18.318;2023-03-01T06:42:37;16.80;;;7.73;;
72105;SDS011;59975;47.646;18.318;2023-03-01T06:45:05;20.88;;;7.93;;
72105;SDS011;59975;47.646;18.318;2023-03-01T06:47:34;21.00;;;8.95;;
72105;SDS011;59975;47.646;18.318;2023-03-01T06:50:00;21.00;;;9.27;;
72105;SDS011;59975;47.646;18.318;2023-03-01T06:52:29;16.30;;;8.45;;
72105;SDS011;59975;47.646;18.318;2023-03-01T06:54:55;19.02;;;8.82;;
72105;SDS011;59975;47.646;18.318;2023-03-01T06:57:27;19.35;;;8.63;;
72105;SDS011;59975;47.646;18.318;2023-03-01T06:59:59;20.02;;;9.20;;
72105;SDS011;59975;47.646;18.318;2023-03-01T07:02:25;23.45;;;9.77;;
72105;SDS011;59975;47.646;18.318;2023-03-01T07:04:51;20.25;;;10.48;;
72105;SDS011;59975;47.646;18.318;2023-03-01T07:07:17;25.23;;;8.93;;
72105;SDS011;59975;47.646;18.318;2023-03-01T07:09:45;21.08;;;9.43;;
72105;SDS011;59975;47.646;18.318;2023-03-01T07:12:18;22.13;;;9.75;;
72105;SDS011;59975;47.646;18.318;2023-03-01T07:14:43;23.97;;;9.27;;
72105;SDS011;59975;47.646;18.318;2023-03-01T07:17:09;22.35;;;9.85;;
72105;SDS011;59975;47.646;18.318;2023-03-01T07:19:38;22.40;;;9.55;;
72105;SDS011;59975;47.646;18.318;2023-03-01T07:22:03;22.03;;;10.07;;
72105;SDS011;59975;47.646;18.318;2023-03-01T07:24:33;20.52;;;8.73;;
72105;SDS011;59975;47.646;18.318;2023-03-01T07:27:01;20.25;;;9.38;;
72105;SDS011;59975;47.646;18.318;2023-03-01T07:29:27;24.38;;;9.52;;
72105;SDS011;59975;47.646;18.318;2023-03-01T07:31:54;19.40;;;9.57;;
72105;SDS011;59975;47.646;18.318;2023-03-01T07:34:19;24.00;;;11.88;;
72105;SDS011;59975;47.646;18.318;2023-03-01T07:36:47;24.57;;;10.13;;
72105;SDS011;59975;47.646;18.318;2023-03-01T07:39:18;18.42;;;8.20;;
72105;SDS011;59975;47.646;18.318;2023-03-01T07:51:57;22.50;;;8.73;;
72105;SDS011;59975;47.646;18.318;2023-03-01T07:54:43;20.90;;;8.90;;
72105;SDS011;59975;47.646;18.318;2023-03-01T07:57:11;17.83;;;8.18;;
72105;SDS011;59975;47.646;18.318;2023-03-01T07:59:37;25.33;;;10.17;;
72105;SDS011;59975;47.646;18.318;2023-03-01T08:08:41;24.63;;;10.30;;
72105;SDS011;59975;47.646;18.318;2023-03-01T08:11:25;24.10;;;11.55;;
72105;SDS011;59975;47.646;18.318;2023-03-01T08:14:36;22.00;;;11.52;;
72105;SDS011;59975;47.646;18.318;2023-03-01T08:20:34;22.58;;;11.65;;
72105;SDS011;59975;47.646;18.318;2023-03-01T08:50:30;19.05;;;8.95;;
72105;SDS011;59975;47.646;18.318;2023-03-01T08:56:12;16.07;;;7.90;;
72105;SDS011;59975;47.646;18.318;2023-03-01T08:58:50;17.10;;;7.78;;
72105;SDS011;59975;47.646;18.318;2023-03-01T09:02:03;16.83;;;7.97;;
72105;SDS011;59975;47.646;18.318;2023-03-01T09:04:57;22.02;;;8.60;;
72105;SDS011;59975;47.646;18.318;2023-03-01T09:15:07;17.75;;;7.70;;
72105;SDS011;59975;47.646;18.318;2023-03-01T09:26:00;16.25;;;7.22;;
72105;SDS011;59975;47.646;18.318;2023-03-01T09:28:25;15.27;;;7.93;;
72105;SDS011;59975;47.646;18.318;2023-03-01T09:31:03;15.93;;;7.53;;
72105;SDS011;59975;47.646;18.318;2023-03-01T09:33:38;21.60;;;9.45;;
72105;SDS011;59975;47.646;18.318;2023-03-01T09:36:15;16.17;;;8.88;;
72105;SDS011;59975;47.646;18.318;2023-03-01T09:39:18;17.23;;;8.47;;
72105;SDS011;59975;47.646;18.318;2023-03-01T09:41:58;14.45;;;8.10;;
72105;SDS011;59975;47.646;18.318;2023-03-01T09:44:42;15.30;;;8.50;;
72105;SDS011;59975;47.646;18.318;2023-03-01T09:47:38;17.95;;;8.63;;
72105;SDS011;59975;47.646;18.318;2023-03-01T09:50:33;18.67;;;8.65;;
72105;SDS011;59975;47.646;18.318;2023-03-01T10:12:48;19.02;;;8.95;;
72105;SDS011;59975;47.646;18.318;2023-03-01T10:19:15;14.65;;;6.85;;
72105;SDS011;59975;47.646;18.318;2023-03-01T11:52:41;15.60;;;6.37;;
72105;SDS011;59975;47.646;18.318;2023-03-01T11:55:36;18.58;;;8.38;;
72105;SDS011;59975;47.646;18.318;2023-03-01T12:07:06;16.33;;;7.93;;
72105;SDS011;59975;47.646;18.318;2023-03-01T12:28:00;14.02;;;7.50;;
72105;SDS011;59975;47.646;18.318;2023-03-01T12:30:55;13.85;;;7.15;;
72105;SDS011;59975;47.646;18.318;2023-03-01T12:34:00;15.38;;;7.60;;
72105;SDS011;59975;47.646;18.318;2023-03-01T12:41:35;13.55;;;7.43;;
72105;SDS011;59975;47.646;18.318;2023-03-01T12:50:03;13.77;;;6.63;;
72105;SDS011;59975;47.646;18.318;2023-03-01T12:55:39;14.55;;;7.30;;
72105;SDS011;59975;47.646;18.318;2023-03-01T13:01:08;13.93;;;7.15;;
72105;SDS011;59975;47.646;18.318;2023-03-01T13:09:34;14.23;;;7.15;;
72105;SDS011;59975;47.646;18.318;2023-03-01T13:15:45;14.20;;;6.25;;
72105;SDS011;59975;47.646;18.318;2023-03-01T13:20:45;10.88;;;5.55;;
72105;SDS011;59975;47.646;18.318;2023-03-01T13:28:39;10.32;;;5.50;;
72105;SDS011;59975;47.646;18.318;2023-03-01T13:36:45;13.40;;;6.18;;
72105;SDS011;59975;47.646;18.318;2023-03-01T13:42:01;14.30;;;6.00;;
72105;SDS011;59975;47.646;18.318;2023-03-01T13:44:30;15.40;;;6.27;;
72105;SDS011;59975;47.646;18.318;2023-03-01T13:57:39;15.57;;;6.57;;
72105;SDS011;59975;47.646;18.318;2023-03-01T14:00:23;14.90;;;6.45;;
72105;SDS011;59975;47.646;18.318;2023-03-01T14:05:36;11.80;;;5.77;;
72105;SDS011;59975;47.646;18.318;2023-03-01T14:08:13;15.20;;;6.82;;
72105;SDS011;59975;47.646;18.318;2023-03-01T14:10:54;13.95;;;6.78;;
72105;SDS011;59975;47.646;18.318;2023-03-01T14:19:22;9.23;;;5.60;;
72105;SDS011;59975;47.646;18.318;2023-03-01T14:24:48;20.10;;;8.35;;
72105;SDS011;59975;47.646;18.318;2023-03-01T14:27:15;14.68;;;6.30;;
72105;SDS011;59975;47.646;18.318;2023-03-01T14:29:42;13.93;;;6.93;;
72105;SDS011;59975;47.646;18.318;2023-03-01T14:32:11;21.23;;;7.80;;
72105;SDS011;59975;47.646;18.318;2023-03-01T14:34:44;16.45;;;6.43;;
72105;SDS011;59975;47.646;18.318;2023-03-01T14:39:52;15.40;;;5.47;;
72105;SDS011;59975;47.646;18.318;2023-03-01T14:42:18;14.40;;;5.82;;
72105;SDS011;59975;47.646;18.318;2023-03-01T14:44:46;9.10;;;4.30;;
72105;SDS011;59975;47.646;18.318;2023-03-01T14:47:15;8.63;;;4.72;;
72105;SDS011;59975;47.646;18.318;2023-03-01T14:49:48;10.18;;;4.47;;
72105;SDS011;59975;47.646;18.318;2023-03-01T14:52:23;9.18;;;5.30;;
72105;SDS011;59975;47.646;18.318;2023-03-01T14:54:56;15.85;;;4.60;;
72105;SDS011;59975;47.646;18.318;2023-03-01T14:57:23;9.40;;;4.70;;
72105;SDS011;59975;47.646;18.318;2023-03-01T14:59:54;11.07;;;5.38;;
72105;SDS011;59975;47.646;18.318;2023-03-01T15:02:24;10.50;;;4.47;;
72105;SDS011;59975;47.646;18.318;2023-03-01T15:04:52;9.57;;;4.28;;
72105;SDS011;59975;47.646;18.318;2023-03-01T15:07:21;7.23;;;4.57;;
72105;SDS011;59975;47.646;18.318;2023-03-01T15:09:51;9.45;;;4.15;;
72105;SDS011;59975;47.646;18.318;2023-03-01T15:12:39;13.80;;;5.35;;
72105;SDS011;59975;47.646;18.318;2023-03-01T15:15:51;10.70;;;5.10;;
72105;SDS011;59975;47.646;18.318;2023-03-01T15:17:59;9.63;;;4.90;;
72105;SDS011;59975;47.646;18.318;2023-03-01T15:20:27;10.13;;;5.50;;
72105;SDS011;59975;47.646;18.318;2023-03-01T15:22:55;9.88;;;4.90;;
72105;SDS011;59975;47.646;18.318;2023-03-01T15:25:23;11.88;;;5.82;;
72105;SDS011;59975;47.646;18.318;2023-03-01T15:27:51;10.07;;;5.40;;
72105;SDS011;59975;47.646;18.318;2023-03-01T15:30:31;11.93;;;5.70;;
72105;SDS011;59975;47.646;18.318;2023-03-01T15:35:51;25.02;;;10.00;;
72105;SDS011;59975;47.646;18.318;2023-03-01T15:38:32;17.65;;;7.80;;
72105;SDS011;59975;47.646;18.318;2023-03-01T15:44:33;10.53;;;4.60;;
72105;SDS011;59975;47.646;18.318;2023-03-01T15:47:01;11.50;;;5.60;;
72105;SDS011;59975;47.646;18.318;2023-03-01T15:52:01;12.40;;;5.85;;
72105;SDS011;59975;47.646;18.318;2023-03-01T15:54:27;13.45;;;5.45;;
72105;SDS011;59975;47.646;18.318;2023-03-01T15:56:54;13.80;;;5.53;;
72105;SDS011;59975;47.646;18.318;2023-03-01T15:59:20;12.18;;;5.30;;
72105;SDS011;59975;47.646;18.318;2023-03-01T16:01:47;10.23;;;5.40;;
72105;SDS011;59975;47.646;18.318;2023-03-01T16:04:14;12.40;;;5.85;;
72105;SDS011;59975;47.646;18.318;2023-03-01T16:06:54;14.75;;;6.50;;
72105;SDS011;59975;47.646;18.318;2023-03-01T16:09:24;11.95;;;5.97;;
72105;SDS011;59975;47.646;18.318;2023-03-01T16:11:50;11.32;;;6.35;;
72105;SDS011;59975;47.646;18.318;2023-03-01T16:14:17;12.25;;;6.35;;
72105;SDS011;59975;47.646;18.318;2023-03-01T16:16:43;12.55;;;5.50;;
72105;SDS011;59975;47.646;18.318;2023-03-01T16:19:09;10.82;;;4.63;;
72105;SDS011;59975;47.646;18.318;2023-03-01T16:21:36;12.15;;;5.82;;
72105;SDS011;59975;47.646;18.318;2023-03-01T16:24:02;11.85;;;5.20;;
72105;SDS011;59975;47.646;18.318;2023-03-01T16:26:27;14.97;;;5.83;;
72105;SDS011;59975;47.646;18.318;2023-03-01T16:28:56;11.95;;;5.32;;
72105;SDS011;59975;47.646;18.318;2023-03-01T16:31:22;9.00;;;5.18;;
72105;SDS011;59975;47.646;18.318;2023-03-01T16:33:52;11.77;;;6.00;;
72105;SDS011;59975;47.646;18.318;2023-03-01T16:36:19;20.80;;;9.57;;
72105;SDS011;59975;47.646;18.318;2023-03-01T16:38:45;26.85;;;10.32;;
72105;SDS011;59975;47.646;18.318;2023-03-01T16:41:12;30.30;;;9.93;;
72105;SDS011;59975;47.646;18.318;2023-03-01T16:43:39;17.95;;;7.50;;
72105;SDS011;59975;47.646;18.318;2023-03-01T16:46:13;23.08;;;8.32;;
72105;SDS011;59975;47.646;18.318;2023-03-01T16:48:40;13.25;;;6.28;;
72105;SDS011;59975;47.646;18.318;2023-03-01T16:51:06;12.30;;;6.20;;
72105;SDS011;59975;47.646;18.318;2023-03-01T16:53:33;12.55;;;5.82;;
72105;SDS011;59975;47.646;18.318;2023-03-01T16:56:01;11.05;;;5.35;;
72105;SDS011;59975;47.646;18.318;2023-03-01T16:58:28;10.13;;;5.03;;
72105;SDS011;59975;47.646;18.318;2023-03-01T17:00:54;11.13;;;5.00;;
72105;SDS011;59975;47.646;18.318;2023-03-01T17:03:21;41.83;;;15.13;;
72105;SDS011;59975;47.646;18.318;2023-03-01T17:05:47;48.70;;;18.13;;
72105;SDS011;59975;47.646;18.318;2023-03-01T17:08:13;50.72;;;19.23;;
72105;SDS011;59975;47.646;18.318;2023-03-01T17:10:39;52.27;;;21.30;;
72105;SDS011;59975;47.646;18.318;2023-03-01T17:13:10;66.53;;;28.58;;
72105;SDS011;59975;47.646;18.318;2023-03-01T17:15:40;33.35;;;15.27;;
72105;SDS011;59975;47.646;18.318;2023-03-01T17:18:06;25.35;;;8.85;;
72105;SDS011;59975;47.646;18.318;2023-03-01T17:20:32;18.90;;;8.18;;
72105;SDS011;59975;47.646;18.318;2023-03-01T17:22:58;17.00;;;7.38;;
72105;SDS011;59975;47.646;18.318;2023-03-01T17:25:23;43.97;;;17.67;;
72105;SDS011;59975;47.646;18.318;2023-03-01T17:27:49;46.95;;;19.00;;
72105;SDS011;59975;47.646;18.318;2023-03-01T17:30:14;54.83;;;22.63;;
72105;SDS011;59975;47.646;18.318;2023-03-01T17:32:40;72.50;;;29.03;;
72105;SDS011;59975;47.646;18.318;2023-03-01T17:35:06;88.10;;;33.35;;
72105;SDS011;59975;47.646;18.318;2023-03-01T17:37:32;75.72;;;30.60;;
72105;SDS011;59975;47.646;18.318;2023-03-01T17:39:58;61.03;;;25.00;;
72105;SDS011;59975;47.646;18.318;2023-03-01T17:42:23;56.00;;;24.70;;
72105;SDS011;59975;47.646;18.318;2023-03-01T17:44:49;43.57;;;18.53;;
72105;SDS011;59975;47.646;18.318;2023-03-01T17:47:14;42.80;;;18.67;;
72105;SDS011;59975;47.646;18.318;2023-03-01T17:49:40;45.97;;;19.57;;
72105;SDS011;59975;47.646;18.318;2023-03-01T17:52:05;42.22;;;19.50;;
72105;SDS011;59975;47.646;18.318;2023-03-01T17:54:31;40.10;;;17.13;;
72105;SDS011;59975;47.646;18.318;2023-03-01T17:56:57;42.72;;;20.58;;
72105;SDS011;59975;47.646;18.318;2023-03-01T17:59:24;48.42;;;20.48;;
72105;SDS011;59975;47.646;18.318;2023-03-01T18:01:55;42.00;;;18.15;;
72105;SDS011;59975;47.646;18.318;2023-03-01T18:04:25;43.70;;;17.92;;
72105;SDS011;59975;47.646;18.318;2023-03-01T18:06:51;37.60;;;16.58;;
72105;SDS011;59975;47.646;18.318;2023-03-01T18:09:17;36.78;;;15.70;;
72105;SDS011;59975;47.646;18.318;2023-03-01T18:11:43;37.07;;;15.77;;
72105;SDS011;59975;47.646;18.318;2023-03-01T18:14:09;37.33;;;13.32;;
72105;SDS011;59975;47.646;18.318;2023-03-01T18:16:34;35.73;;;14.97;;
72105;SDS011;59975;47.646;18.318;2023-03-01T18:19:00;29.73;;;13.93;;
72105;SDS011;59975;47.646;18.318;2023-03-01T18:21:27;27.45;;;13.45;;
72105;SDS011;59975;47.646;18.318;2023-03-01T18:23:53;30.90;;;13.80;;
72105;SDS011;59975;47.646;18.318;2023-03-01T18:26:19;30.13;;;13.13;;
72105;SDS011;59975;47.646;18.318;2023-03-01T18:28:46;33.60;;;14.82;;
72105;SDS011;59975;47.646;18.318;2023-03-01T18:31:15;34.87;;;13.23;;
72105;SDS011;59975;47.646;18.318;2023-03-01T18:33:42;41.67;;;14.32;;
72105;SDS011;59975;47.646;18.318;2023-03-01T18:36:19;31.15;;;12.90;;
72105;SDS011;59975;47.646;18.318;2023-03-01T18:38:47;39.28;;;14.23;;
72105;SDS011;59975;47.646;18.318;2023-03-01T18:41:13;37.33;;;14.93;;
72105;SDS011;59975;47.646;18.318;2023-03-01T18:43:42;37.43;;;13.87;;
72105;SDS011;59975;47.646;18.318;2023-03-01T18:46:08;42.03;;;14.13;;
72105;SDS011;59975;47.646;18.318;2023-03-01T18:48:33;39.93;;;15.70;;
72105;SDS011;59975;47.646;18.318;2023-03-01T18:51:10;34.85;;;13.88;;
72105;SDS011;59975;47.646;18.318;2023-03-01T18:53:38;48.47;;;14.98;;
72105;SDS011;59975;47.646;18.318;2023-03-01T18:56:04;40.80;;;13.57;;
72105;SDS011;59975;47.646;18.318;2023-03-01T18:58:31;38.67;;;12.52;;
72105;SDS011;59975;47.646;18.318;2023-03-01T19:00:56;37.80;;;13.23;;
72105;SDS011;59975;47.646;18.318;2023-03-01T19:03:21;36.97;;;12.68;;
72105;SDS011;59975;47.646;18.318;2023-03-01T19:05:47;39.30;;;14.77;;
72105;SDS011;59975;47.646;18.318;2023-03-01T19:08:13;41.93;;;15.17;;
72105;SDS011;59975;47.646;18.318;2023-03-01T19:10:38;37.45;;;14.05;;
72105;SDS011;59975;47.646;18.318;2023-03-01T19:13:03;51.07;;;17.30;;
72105;SDS011;59975;47.646;18.318;2023-03-01T19:15:29;51.27;;;17.03;;
72105;SDS011;59975;47.646;18.318;2023-03-01T19:17:54;45.77;;;16.10;;
72105;SDS011;59975;47.646;18.318;2023-03-01T19:20:21;49.38;;;19.05;;
72105;SDS011;59975;47.646;18.318;2023-03-01T19:22:46;49.58;;;16.95;;
72105;SDS011;59975;47.646;18.318;2023-03-01T19:25:12;66.97;;;21.30;;